createdAt,value
2018-05-10T00:02:09.688Z,17.70
2018-05-10T00:05:42.163Z,17.70
2018-05-10T00:09:14.657Z,17.70
2018-05-10T00:12:47.147Z,17.60
2018-05-10T00:16:19.637Z,17.50
2018-05-10T00:19:52.105Z,17.30
2018-05-10T00:23:24.595Z,17.30
2018-05-10T00:26:57.090Z,17.20
2018-05-10T00:30:29.576Z,17.20
2018-05-10T00:34:02.069Z,17.10
2018-05-10T00:37:34.568Z,17.00
2018-05-10T00:41:07.829Z,16.90
2018-05-10T00:44:41.128Z,16.90
2018-05-10T00:48:13.611Z,16.80
2018-05-10T00:51:46.101Z,16.80
2018-05-10T00:55:18.584Z,16.80
2018-05-10T00:58:51.065Z,16.80
2018-05-10T01:02:23.705Z,16.80
2018-05-10T01:05:58.525Z,16.80
2018-05-10T01:09:31.764Z,16.70
2018-05-10T01:13:04.251Z,16.60
2018-05-10T01:16:36.741Z,16.60
2018-05-10T01:20:09.245Z,16.60
2018-05-10T01:23:41.716Z,16.50
2018-05-10T01:27:14.209Z,16.50
2018-05-10T01:30:46.705Z,16.40
2018-05-10T01:34:19.204Z,16.40
2018-05-10T01:37:51.709Z,16.40
2018-05-10T01:41:24.202Z,16.40
2018-05-10T01:44:56.684Z,16.40
2018-05-10T01:48:29.155Z,16.40
2018-05-10T01:52:01.636Z,16.40
2018-05-10T01:55:34.167Z,16.50
2018-05-10T01:59:06.617Z,16.50
2018-05-10T02:02:39.100Z,16.50
2018-05-10T02:06:11.579Z,16.50
2018-05-10T02:09:44.062Z,16.50
2018-05-10T02:13:16.537Z,16.50
2018-05-10T02:16:49.023Z,16.50
2018-05-10T02:20:21.509Z,16.40
2018-05-10T02:23:53.996Z,16.40
2018-05-10T02:27:26.487Z,16.40
2018-05-10T02:30:58.969Z,16.30
2018-05-10T02:34:31.463Z,16.30
2018-05-10T02:38:03.948Z,16.20
2018-05-10T02:41:36.433Z,16.20
2018-05-10T02:45:09.004Z,16.20
2018-05-10T02:48:42.168Z,16.20
2018-05-10T02:52:14.649Z,16.10
2018-05-10T02:55:47.139Z,16.10
2018-05-10T02:59:19.629Z,16.10
2018-05-10T03:02:52.099Z,16.00
2018-05-10T03:06:24.592Z,15.90
2018-05-10T03:09:57.075Z,15.90
2018-05-10T03:13:29.552Z,15.90
2018-05-10T03:17:02.053Z,15.90
2018-05-10T03:20:34.541Z,15.80
2018-05-10T03:24:07.020Z,15.80
2018-05-10T03:27:39.510Z,15.70
2018-05-10T03:31:11.990Z,15.70
2018-05-10T03:34:44.557Z,15.60
2018-05-10T03:38:17.733Z,15.50
2018-05-10T03:41:50.221Z,15.50
2018-05-10T03:45:22.697Z,15.50
2018-05-10T03:48:55.177Z,15.40
2018-05-10T03:52:27.652Z,15.40
2018-05-10T03:56:00.140Z,15.40
2018-05-10T03:59:32.607Z,15.30
2018-05-10T04:07:34.476Z,15.40
2018-05-10T04:11:18.705Z,15.40
2018-05-10T04:14:51.184Z,15.40
2018-05-10T04:18:23.664Z,15.40
2018-05-10T04:21:56.136Z,15.40
2018-05-10T04:25:28.608Z,15.40
2018-05-10T04:29:01.114Z,15.60
2018-05-10T04:32:33.584Z,15.70
2018-05-10T04:36:06.066Z,15.80
2018-05-10T04:39:38.541Z,15.90
2018-05-10T04:43:11.036Z,16.00
2018-05-10T04:46:43.516Z,16.10
2018-05-10T04:50:16.008Z,16.20
2018-05-10T04:53:48.472Z,16.30
2018-05-10T04:57:20.960Z,16.40
2018-05-10T05:00:53.449Z,16.50
2018-05-10T05:04:25.934Z,16.60
2018-05-10T05:07:58.433Z,16.60
2018-05-10T05:11:30.916Z,16.70
2018-05-10T05:15:03.392Z,16.80
2018-05-10T05:18:35.859Z,16.90
2018-05-10T05:22:08.348Z,17.00
2018-05-10T05:25:40.821Z,17.00
2018-05-10T05:29:14.076Z,17.10
2018-05-10T05:32:46.600Z,17.10
2018-05-10T05:36:19.078Z,17.10
2018-05-10T05:39:51.552Z,17.10
2018-05-10T05:43:24.048Z,17.00
2018-05-10T05:46:56.511Z,17.00
2018-05-10T05:50:28.988Z,17.10
2018-05-10T05:54:01.471Z,17.10
2018-05-10T05:57:33.967Z,17.10
2018-05-10T06:01:06.441Z,17.10
2018-05-10T06:04:38.944Z,17.10
2018-05-10T06:08:11.417Z,17.20
2018-05-10T06:11:43.904Z,17.20
2018-05-10T06:15:16.394Z,17.20
2018-05-10T06:18:48.884Z,17.30
2018-05-10T06:22:21.372Z,17.40
2018-05-10T06:25:53.860Z,17.40
2018-05-10T06:29:26.348Z,17.50
2018-05-10T06:32:59.984Z,17.60
2018-05-10T06:36:32.475Z,17.60
2018-05-10T06:40:04.962Z,17.70
2018-05-10T06:43:37.434Z,17.90
2018-05-10T06:47:09.913Z,18.00
2018-05-10T06:50:42.380Z,18.20
2018-05-10T06:54:14.864Z,18.30
2018-05-10T06:57:47.346Z,18.40
2018-05-10T07:01:20.605Z,18.70
2018-05-10T07:04:53.118Z,18.70
2018-05-10T07:08:25.613Z,18.90
2018-05-10T07:11:58.093Z,19.00
2018-05-10T07:15:30.592Z,19.20
2018-05-10T07:19:03.089Z,19.30
2018-05-10T07:22:35.566Z,19.40
2018-05-10T07:26:08.069Z,19.60
2018-05-10T07:29:40.549Z,19.70
2018-05-10T07:33:13.025Z,19.80
2018-05-10T07:36:45.512Z,20.00
2018-05-10T07:40:18.012Z,20.10
2018-05-10T07:43:50.504Z,20.10
2018-05-10T07:47:23.005Z,20.10
2018-05-10T07:50:56.247Z,20.30
2018-05-10T07:54:28.740Z,20.30
2018-05-10T07:58:01.226Z,20.30
2018-05-10T08:01:33.704Z,20.30
2018-05-10T08:05:06.240Z,20.40
2018-05-10T08:08:38.721Z,20.60
2018-05-10T08:12:11.241Z,20.80
2018-05-10T08:15:43.719Z,21.10
2018-05-10T08:19:16.205Z,21.20
2018-05-10T08:22:48.688Z,21.50
2018-05-10T08:26:21.177Z,21.60
2018-05-10T08:29:53.656Z,21.80
2018-05-10T08:33:26.145Z,22.00
2018-05-10T08:36:58.645Z,22.10
2018-05-10T08:40:31.132Z,22.30
2018-05-10T08:44:04.386Z,22.70
2018-05-10T08:47:36.870Z,22.60
2018-05-10T08:51:09.353Z,22.80
2018-05-10T08:54:41.829Z,22.90
2018-05-10T08:58:14.312Z,23.00
2018-05-10T09:01:46.803Z,23.20
2018-05-10T09:05:19.289Z,23.20
2018-05-10T09:08:51.771Z,23.30
2018-05-10T09:12:24.240Z,23.50
2018-05-10T09:15:57.476Z,23.80
2018-05-10T09:19:29.968Z,23.70
2018-05-10T09:23:02.448Z,23.80
2018-05-10T09:26:34.924Z,24.00
2018-05-10T09:30:07.410Z,24.20
2018-05-10T09:33:39.902Z,24.30
2018-05-10T09:37:12.392Z,24.40
2018-05-10T09:40:45.632Z,24.60
2018-05-10T09:44:18.095Z,24.60
2018-05-10T09:47:50.576Z,24.70
2018-05-10T09:51:23.064Z,24.80
2018-05-10T09:54:55.544Z,24.90
2018-05-10T09:58:28.012Z,25.00
2018-05-10T10:02:00.511Z,25.10
2018-05-10T10:05:32.984Z,25.10
2018-05-10T10:09:05.477Z,25.20
2018-05-10T10:12:37.952Z,25.20
2018-05-10T10:16:10.436Z,25.20
2018-05-10T10:19:42.909Z,25.20
2018-05-10T10:23:15.388Z,25.30
2018-05-10T10:26:47.873Z,25.40
2018-05-10T10:30:20.355Z,25.40
2018-05-10T10:33:52.849Z,25.60
2018-05-10T10:37:25.324Z,25.70
2018-05-10T10:40:57.806Z,25.90
2018-05-10T10:44:30.288Z,26.00
2018-05-10T10:48:02.755Z,26.10
2018-05-10T10:51:36.396Z,26.30
2018-05-10T10:55:08.860Z,26.30
2018-05-10T10:58:41.350Z,26.40
2018-05-10T11:02:13.832Z,26.40
2018-05-10T11:05:46.352Z,26.20
2018-05-10T11:09:18.861Z,25.70
2018-05-10T11:12:52.130Z,24.80
2018-05-10T11:16:24.613Z,24.70
2018-05-10T11:19:57.093Z,24.50
2018-05-10T11:23:29.590Z,24.30
2018-05-10T11:27:02.072Z,24.00
2018-05-10T11:30:34.556Z,23.80
2018-05-10T11:34:07.038Z,23.70
2018-05-10T11:37:39.528Z,23.50
2018-05-10T11:41:12.005Z,23.40
2018-05-10T11:44:44.493Z,23.30
2018-05-10T11:48:16.982Z,23.20
2018-05-10T11:51:50.248Z,23.10
2018-05-10T11:55:22.733Z,23.10
2018-05-10T11:58:55.245Z,23.10
2018-05-10T12:02:27.860Z,22.90
2018-05-10T12:06:00.377Z,22.70
2018-05-10T12:09:32.803Z,22.70
2018-05-10T12:13:05.292Z,22.50
2018-05-10T12:16:37.770Z,22.30
2018-05-10T12:20:10.262Z,22.10
2018-05-10T12:23:42.738Z,21.90
2018-05-10T12:27:15.232Z,21.70
2018-05-10T12:30:47.704Z,21.50
2018-05-10T12:34:20.268Z,21.40
2018-05-10T12:37:53.528Z,20.80
2018-05-10T12:41:26.010Z,20.70
2018-05-10T12:44:58.492Z,20.40
2018-05-10T12:48:30.976Z,19.90
2018-05-10T12:52:03.453Z,19.30
2018-05-10T12:55:35.945Z,18.90
2018-05-10T12:59:08.430Z,18.60
2018-05-10T13:02:40.901Z,18.20
2018-05-10T13:06:13.393Z,17.80
2018-05-10T13:09:45.884Z,17.60
2018-05-10T13:13:18.397Z,17.40
2018-05-10T13:16:50.881Z,17.20
2018-05-10T13:20:24.128Z,16.90
2018-05-10T13:23:56.617Z,16.90
2018-05-10T13:27:29.093Z,16.60
2018-05-10T13:31:01.592Z,16.40
2018-05-10T13:34:34.061Z,16.10
2018-05-10T13:38:06.536Z,15.90
2018-05-10T13:41:39.021Z,15.70
2018-05-10T13:45:11.489Z,15.70
2018-05-10T13:48:43.968Z,15.70
2018-05-10T13:52:16.449Z,15.80
2018-05-10T13:55:48.919Z,15.90
2018-05-10T13:59:21.416Z,16.00
2018-05-10T14:02:53.888Z,16.20
2018-05-10T14:06:26.373Z,16.30
2018-05-10T14:09:58.888Z,16.50
2018-05-10T14:13:31.357Z,16.70
2018-05-10T14:17:03.846Z,16.70
2018-05-10T14:20:36.338Z,16.80
2018-05-10T14:24:08.820Z,16.80
2018-05-10T14:27:41.301Z,16.80
2018-05-10T14:31:13.793Z,16.50
2018-05-10T14:34:46.273Z,16.30
2018-05-10T14:38:18.764Z,16.20
2018-05-10T14:41:52.009Z,16.10
2018-05-10T14:45:24.484Z,16.00
2018-05-10T14:48:56.982Z,16.10
2018-05-10T14:52:29.461Z,16.30
2018-05-10T14:56:01.945Z,16.50
2018-05-10T14:59:34.503Z,16.70
2018-05-10T15:03:06.911Z,16.80
2018-05-10T15:06:39.384Z,16.90
2018-05-10T15:10:11.888Z,17.10
2018-05-10T15:13:44.374Z,17.20
2018-05-10T15:17:16.849Z,17.20
2018-05-10T15:20:49.332Z,17.30
2018-05-10T15:24:21.811Z,17.40
2018-05-10T15:27:54.298Z,17.40
2018-05-10T15:31:26.784Z,17.50
2018-05-10T15:34:59.274Z,17.60
2018-05-10T15:38:31.756Z,17.60
2018-05-10T15:42:04.228Z,17.60
2018-05-10T15:45:36.745Z,17.70
2018-05-10T15:49:09.994Z,17.70
2018-05-10T15:52:42.464Z,17.70
2018-05-10T15:56:14.965Z,17.80
2018-05-10T15:59:47.451Z,17.90
2018-05-10T16:03:19.926Z,18.00
2018-05-10T16:06:52.437Z,18.20
2018-05-10T16:10:24.925Z,18.30
2018-05-10T16:13:58.234Z,18.40
2018-05-10T16:17:30.660Z,18.40
2018-05-10T16:21:03.148Z,18.50
2018-05-10T16:24:35.641Z,18.70
2018-05-10T16:28:08.131Z,18.90
2018-05-10T16:31:40.637Z,19.10
2018-05-10T16:35:13.134Z,19.30
2018-05-10T16:38:45.629Z,19.30
2018-05-10T16:42:18.124Z,19.30
2018-05-10T16:45:50.604Z,19.40
2018-05-10T16:49:23.096Z,19.40
2018-05-10T16:52:55.580Z,19.40
2018-05-10T16:56:28.101Z,19.40
2018-05-10T17:00:00.602Z,19.40
2018-05-10T17:03:33.864Z,19.20
2018-05-10T17:07:06.370Z,19.20
2018-05-10T17:10:38.863Z,19.00
2018-05-10T17:14:12.144Z,18.70
2018-05-10T17:17:44.625Z,18.70
2018-05-10T17:21:17.124Z,18.50
2018-05-10T17:24:50.383Z,18.10
2018-05-10T17:28:22.874Z,18.10
2018-05-10T17:31:57.657Z,17.90
2018-05-10T17:35:30.917Z,17.60
2018-05-10T17:39:03.493Z,17.60
2018-05-10T17:42:35.976Z,17.40
2018-05-10T17:46:08.476Z,17.20
2018-05-10T17:49:41.761Z,16.60
2018-05-10T17:53:14.246Z,16.60
2018-05-10T17:56:46.748Z,16.50
2018-05-10T18:00:19.235Z,16.40
2018-05-10T18:03:52.502Z,16.40
2018-05-10T18:07:24.976Z,16.40
2018-05-10T18:10:57.472Z,16.50
2018-05-10T18:14:29.964Z,16.50
2018-05-10T18:18:02.448Z,16.60
2018-05-10T18:21:34.937Z,16.60
2018-05-10T18:25:07.429Z,16.60
2018-05-10T18:28:40.707Z,16.60
2018-05-10T18:32:13.250Z,16.60
2018-05-10T18:35:45.776Z,16.60
2018-05-10T18:39:18.255Z,16.70
2018-05-10T18:42:50.744Z,16.60
2018-05-10T18:46:23.278Z,16.60
2018-05-10T18:49:55.742Z,16.70
2018-05-10T18:53:28.703Z,16.60
2018-05-10T18:57:01.184Z,16.70
2018-05-10T19:00:33.956Z,16.70
2018-05-10T19:04:07.217Z,16.60
2018-05-10T19:07:39.733Z,16.60
2018-05-10T19:11:12.212Z,16.50
2018-05-10T19:14:44.713Z,16.40
2018-05-10T19:18:17.205Z,16.40
2018-05-10T19:21:49.696Z,16.30
2018-05-10T19:25:22.943Z,16.10
2018-05-10T19:28:55.434Z,16.10
2018-05-10T19:32:27.912Z,16.10
2018-05-10T19:36:00.418Z,16.00
2018-05-10T19:39:32.903Z,15.90
2018-05-10T19:43:05.404Z,15.80
2018-05-10T19:46:37.913Z,15.70
2018-05-10T19:50:10.404Z,15.70
2018-05-10T19:53:42.905Z,15.60
2018-05-10T19:57:15.387Z,15.60
2018-05-10T20:00:47.863Z,15.60
2018-05-10T20:04:20.356Z,15.50
2018-05-10T20:07:52.883Z,15.40
2018-05-10T20:11:25.350Z,15.40
2018-05-10T20:14:57.822Z,15.40
2018-05-10T20:18:30.308Z,15.30
2018-05-10T20:22:02.813Z,15.30
2018-05-10T20:25:36.070Z,15.10
2018-05-10T20:33:07.359Z,15.00
2018-05-10T20:36:39.846Z,15.00
2018-05-10T20:40:12.321Z,14.90
2018-05-10T20:43:44.804Z,14.90
2018-05-10T20:47:17.297Z,14.90
2018-05-10T20:50:49.792Z,14.90
2018-05-10T20:54:22.266Z,14.80
2018-05-10T20:57:54.756Z,14.90
2018-05-10T21:01:27.237Z,14.90
2018-05-10T21:04:59.715Z,14.90
2018-05-10T21:08:32.181Z,14.90
2018-05-10T21:12:04.748Z,14.90
2018-05-10T21:15:37.216Z,14.90
2018-05-10T21:19:09.718Z,14.90
2018-05-10T21:22:42.190Z,14.80
2018-05-10T21:26:14.752Z,14.80
2018-05-10T21:29:47.157Z,14.80
2018-05-10T21:33:19.640Z,14.80
2018-05-10T21:36:52.108Z,14.70
2018-05-10T21:40:24.593Z,14.70
2018-05-10T21:43:57.068Z,14.70
2018-05-10T21:47:29.549Z,14.70
2018-05-10T21:51:02.024Z,14.70
2018-05-10T21:54:34.513Z,14.70
2018-05-10T21:58:07.036Z,14.70
2018-05-10T22:01:39.536Z,14.70
2018-05-10T22:05:12.017Z,14.70
2018-05-10T22:08:44.529Z,14.60
2018-05-10T22:12:17.056Z,14.60
2018-05-10T22:15:50.236Z,14.60
2018-05-10T22:19:22.709Z,14.60
2018-05-10T22:22:56.921Z,14.70
2018-05-10T22:26:29.414Z,14.60
2018-05-10T22:30:02.449Z,14.60
2018-05-10T22:33:34.917Z,14.70
2018-05-10T22:37:07.404Z,14.70
2018-05-10T22:40:39.893Z,14.70
2018-05-10T22:44:12.385Z,14.70
2018-05-10T22:47:44.875Z,14.70
2018-05-10T22:51:17.360Z,14.70
2018-05-10T22:54:49.856Z,14.70
2018-05-10T22:58:23.091Z,14.70
2018-05-10T23:01:55.571Z,14.70
2018-05-10T23:05:31.807Z,14.70
2018-05-10T23:09:05.483Z,14.60
2018-05-10T23:12:37.988Z,14.60
2018-05-10T23:16:11.238Z,14.60
2018-05-10T23:19:44.899Z,14.50
2018-05-10T23:23:18.157Z,14.50
2018-05-10T23:26:55.129Z,14.50
2018-05-10T23:30:27.656Z,14.40
2018-05-10T23:34:00.135Z,14.40
2018-05-10T23:37:32.619Z,14.50
2018-05-10T23:41:05.102Z,14.50
2018-05-10T23:44:37.588Z,14.50
2018-05-10T23:48:10.064Z,14.50
2018-05-10T23:51:42.577Z,14.50
2018-05-10T23:55:15.053Z,14.50
2018-05-10T23:58:48.297Z,14.60
